Time;durP1;ratioP1;P1;durP2;ratioP2;P2;SDS_P1;SDS_P2;PMS_P1;PMS_P2;Temp;Humidity;BMP_temperature;BMP_pressure;BME280_temperature;BME280_humidity;BME280_pressure;Samples;Min_cycle;Max_cycle;Signal;HPM_P1;HPM_P2
2022/09/28 00:01:06;;;;;;;15.60;9.80;;;6.90;99.90;;;;;;5006072;28;20068;-75
2022/09/28 00:03:33;;;;;;;14.70;8.40;;;6.80;99.90;;;;;;5010711;28;20045;-74
2022/09/28 00:06:07;;;;;;;11.77;7.93;;;6.80;99.90;;;;;;4993810;28;20060;-74
2022/09/28 00:08:34;;;;;;;13.40;9.10;;;6.80;99.90;;;;;;4983774;28;20137;-75
2022/09/28 00:11:01;;;;;;;15.30;7.10;;;6.80;99.90;;;;;;4993973;28;20085;-75
2022/09/28 00:13:28;;;;;;;10.40;6.57;;;6.80;99.90;;;;;;4999575;28;20528;-75
2022/09/28 00:16:05;;;;;;;12.73;5.80;;;6.90;99.90;;;;;;5015954;28;20056;-75
2022/09/28 00:18:32;;;;;;;15.30;6.60;;;6.90;99.90;;;;;;4981754;28;20126;-74
2022/09/28 00:21:04;;;;;;;20.67;7.40;;;7.00;99.90;;;;;;4987419;28;20631;-74
2022/09/28 00:23:30;;;;;;;10.43;7.17;;;7.00;99.90;;;;;;4991311;28;20108;-74
2022/09/28 00:26:00;;;;;;;13.77;7.20;;;6.90;99.90;;;;;;5004112;28;20054;-74
2022/09/28 00:28:25;;;;;;;14.37;8.10;;;7.00;99.90;;;;;;4982114;28;20096;-74
2022/09/28 00:30:55;;;;;;;14.93;8.60;;;6.90;99.90;;;;;;4981717;28;20505;-74
2022/09/28 00:33:21;;;;;;;12.07;7.27;;;7.00;99.90;;;;;;4976677;28;20111;-74
2022/09/28 00:35:54;;;;;;;20.03;9.67;;;6.90;99.90;;;;;;4993244;28;20433;-74
2022/09/28 00:38:19;;;;;;;23.90;14.50;;;6.90;99.90;;;;;;4995293;28;20130;-74
2022/09/28 00:40:45;;;;;;;63.00;30.87;;;6.90;99.90;;;;;;4993124;28;20121;-74
2022/09/28 00:43:18;;;;;;;41.63;20.87;;;7.00;99.90;;;;;;4989516;28;20093;-74
2022/09/28 00:45:51;;;;;;;22.87;11.80;;;6.90;99.90;;;;;;4997971;28;20508;-74
2022/09/28 00:48:16;;;;;;;15.93;9.00;;;7.00;99.90;;;;;;4980267;28;20050;-74
2022/09/28 00:50:43;;;;;;;16.70;10.90;;;6.90;99.90;;;;;;5001141;28;20065;-74
2022/09/28 00:53:14;;;;;;;22.27;11.80;;;6.90;99.90;;;;;;4988618;28;20136;-74
2022/09/28 00:55:47;;;;;;;31.20;16.48;;;7.00;99.90;;;;;;4992907;28;20046;-74
2022/09/28 00:58:26;;;;;;;35.70;18.27;;;7.00;99.90;;;;;;4976365;28;20054;-74
2022/09/28 01:00:55;;;;;;;32.30;14.90;;;7.00;99.90;;;;;;5010579;28;20486;-74
2022/09/28 01:03:20;;;;;;;18.13;10.70;;;7.00;99.90;;;;;;5009691;28;20034;-74
2022/09/28 01:05:47;;;;;;;39.63;20.27;;;7.00;99.90;;;;;;5010220;28;20056;-75
2022/09/28 01:08:13;;;;;;;65.03;32.73;;;7.10;99.90;;;;;;4976429;28;20103;-74
2022/09/28 01:10:42;;;;;;;41.23;20.27;;;7.10;99.90;;;;;;4978642;28;20050;-74
2022/09/28 01:13:09;;;;;;;50.93;27.60;;;7.10;99.90;;;;;;4988382;28;20050;-74
2022/09/28 01:15:42;;;;;;;96.47;47.43;;;7.10;99.90;;;;;;4999840;28;20497;-74
2022/09/28 01:18:20;;;;;;;56.13;26.90;;;7.20;99.90;;;;;;4976521;28;20041;-75
2022/09/28 01:21:09;;;;;;;27.03;15.73;;;7.20;99.90;;;;;;4976225;28;20060;-74
2022/09/28 01:24:00;;;;;;;27.97;14.23;;;7.20;99.90;;;;;;4991851;28;20042;-74
2022/09/28 01:26:44;;;;;;;34.20;16.33;;;7.10;99.90;;;;;;4989507;28;20057;-74
2022/09/28 01:29:42;;;;;;;22.83;12.37;;;7.20;99.90;;;;;;4991665;28;20552;-74
2022/09/28 01:32:12;;;;;;;22.80;11.03;;;7.10;99.90;;;;;;4975210;28;20484;-74
2022/09/28 01:35:00;;;;;;;20.63;10.83;;;7.10;99.90;;;;;;4992290;28;20489;-75
2022/09/28 01:37:38;;;;;;;19.10;10.47;;;7.20;99.90;;;;;;4958007;28;20042;-74
2022/09/28 01:40:06;;;;;;;22.30;10.93;;;7.10;99.90;;;;;;5007627;28;20045;-75
2022/09/28 01:42:35;;;;;;;17.53;10.73;;;7.20;99.90;;;;;;4989552;28;20416;-75
2022/09/28 01:45:06;;;;;;;23.07;11.07;;;7.10;99.90;;;;;;4996788;28;20501;-75
2022/09/28 01:47:35;;;;;;;23.13;12.57;;;7.10;99.90;;;;;;4993993;28;20525;-74
2022/09/28 01:50:10;;;;;;;20.97;11.17;;;7.10;99.90;;;;;;4992294;28;20053;-75
2022/09/28 01:52:45;;;;;;;24.47;11.67;;;7.10;99.90;;;;;;4991807;28;20117;-74
2022/09/28 01:55:29;;;;;;;22.00;11.87;;;7.10;99.90;;;;;;5009917;28;20053;-75
2022/09/28 01:58:18;;;;;;;35.77;17.40;;;7.10;99.90;;;;;;4975888;28;20046;-74
2022/09/28 02:00:49;;;;;;;24.97;13.07;;;7.10;99.90;;;;;;4981610;28;20332;-75
2022/09/28 02:03:19;;;;;;;24.00;12.02;;;7.20;99.90;;;;;;4991420;28;20042;-75
2022/09/28 02:05:55;;;;;;;24.33;11.90;;;7.10;99.90;;;;;;4993061;28;20049;-75
2022/09/28 02:08:30;;;;;;;25.90;11.87;;;7.20;99.90;;;;;;4977442;28;20401;-74
2022/09/28 02:11:02;;;;;;;21.80;12.40;;;7.10;99.90;;;;;;4995312;28;20056;-74
2022/09/28 02:13:39;;;;;;;;;;;7.20;99.90;;;;;;4984039;28;20419;-74
2022/09/28 02:16:17;;;;;;;26.00;11.70;;;7.10;99.90;;;;;;4995302;28;19975;-74
2022/09/28 02:18:44;;;;;;;28.40;13.13;;;7.20;99.90;;;;;;4990253;28;20306;-74
2022/09/28 02:21:30;;;;;;;23.87;12.97;;;7.10;99.90;;;;;;4995878;28;20069;-74
2022/09/28 02:24:01;;;;;;;23.57;13.20;;;7.20;99.90;;;;;;5012450;28;20042;-74
2022/09/28 02:26:31;;;;;;;30.02;14.10;;;7.20;99.90;;;;;;4983448;28;20108;-74
2022/09/28 02:28:58;;;;;;;29.33;14.87;;;7.20;99.90;;;;;;4993337;28;20367;-74
2022/09/28 02:31:24;;;;;;;37.80;21.97;;;7.20;99.90;;;;;;4995557;28;20058;-74
2022/09/28 02:33:52;;;;;;;44.17;24.53;;;7.20;99.90;;;;;;4994519;28;20129;-74
2022/09/28 02:36:18;;;;;;;40.40;22.07;;;7.10;99.90;;;;;;5002298;28;20049;-74
2022/09/28 02:38:43;;;;;;;30.20;14.97;;;7.20;99.90;;;;;;5008420;28;20568;-74
2022/09/28 02:41:31;;;;;;;27.90;14.23;;;7.10;99.90;;;;;;4995253;28;20505;-75
2022/09/28 02:44:15;;;;;;;28.37;13.53;;;7.10;99.90;;;;;;4975243;28;20052;-74
2022/09/28 02:46:53;;;;;;;25.37;13.27;;;7.00;99.90;;;;;;4998503;28;20144;-75
2022/09/28 02:49:50;;;;;;;24.20;13.40;;;7.10;99.90;;;;;;4994149;28;20046;-75
2022/09/28 02:52:31;;;;;;;26.80;14.17;;;7.00;99.90;;;;;;5002794;28;20058;-74
2022/09/28 02:55:18;;;;;;;30.00;14.77;;;6.90;99.90;;;;;;4993050;28;20053;-75
2022/09/28 02:57:51;;;;;;;31.33;14.30;;;6.90;99.90;;;;;;4996470;28;20293;-74
2022/09/28 03:00:20;;;;;;;28.00;13.43;;;6.90;99.90;;;;;;4986839;28;20117;-75
2022/09/28 03:03:04;;;;;;;30.53;14.30;;;7.00;99.90;;;;;;4978647;28;20088;-74
2022/09/28 03:05:56;;;;;;;28.20;13.93;;;6.90;99.90;;;;;;5012693;28;20157;-74
2022/09/28 03:08:29;;;;;;;31.87;14.83;;;6.90;99.90;;;;;;4996015;28;20627;-74
2022/09/28 03:11:02;;;;;;;31.60;13.50;;;6.90;99.90;;;;;;5012674;28;20123;-74
2022/09/28 03:13:29;;;;;;;35.13;15.50;;;6.90;99.90;;;;;;4983912;28;20085;-74
2022/09/28 03:16:18;;;;;;;38.07;15.10;;;6.90;99.90;;;;;;4994664;28;20050;-74
2022/09/28 03:18:45;;;;;;;30.67;14.43;;;6.90;99.90;;;;;;4988124;28;20512;-74
2022/09/28 03:21:11;;;;;;;35.60;14.67;;;6.80;99.90;;;;;;4994848;28;20089;-74
2022/09/28 03:23:37;;;;;;;35.10;14.57;;;6.80;99.90;;;;;;5011165;28;20194;-74
2022/09/28 03:26:03;;;;;;;31.50;14.33;;;6.90;99.90;;;;;;4994836;28;20291;-74
2022/09/28 03:28:29;;;;;;;38.13;14.80;;;6.90;99.90;;;;;;4978063;28;20314;-74
2022/09/28 03:30:55;;;;;;;33.83;15.03;;;6.70;99.90;;;;;;5012180;28;20485;-74
2022/09/28 03:33:21;;;;;;;37.57;15.80;;;6.80;99.90;;;;;;4994032;28;20133;-74
2022/09/28 03:35:49;;;;;;;41.77;15.50;;;6.70;99.90;;;;;;4994239;28;20493;-74
2022/09/28 03:38:17;;;;;;;48.93;16.03;;;6.90;99.90;;;;;;4959369;28;20103;-74
2022/09/28 03:40:43;;;;;;;62.87;17.20;;;6.80;99.90;;;;;;4992485;28;20046;-74
2022/09/28 03:43:08;;;;;;;42.47;15.43;;;6.80;99.90;;;;;;5009982;28;20061;-74
2022/09/28 03:45:34;;;;;;;86.30;17.77;;;6.70;99.90;;;;;;5009895;28;20167;-74
2022/09/28 03:48:00;;;;;;;104.53;17.77;;;6.50;99.90;;;;;;4995137;28;20129;-74
2022/09/28 03:50:25;;;;;;;150.67;19.70;;;6.60;99.90;;;;;;4974686;28;20057;-74
2022/09/28 03:52:51;;;;;;;84.23;17.30;;;6.50;99.90;;;;;;5003996;28;20375;-74
2022/09/28 03:55:17;;;;;;;141.43;12.77;;;6.50;99.90;;;;;;4982343;28;20053;-74
2022/09/28 03:57:42;;;;;;;83.03;10.77;;;6.40;99.90;;;;;;4976260;28;20108;-74
2022/09/28 04:00:09;;;;;;;216.63;17.63;;;6.20;99.90;;;;;;4978165;28;20061;-74
2022/09/28 04:02:34;;;;;;;163.17;16.70;;;6.20;99.90;;;;;;4992749;28;20046;-74
2022/09/28 04:05:01;;;;;;;214.53;19.43;;;6.20;99.90;;;;;;4993763;28;20057;-74
2022/09/28 04:07:26;;;;;;;184.43;18.83;;;6.00;99.90;;;;;;4976153;28;20045;-73
2022/09/28 04:09:52;;;;;;;165.27;18.00;;;6.20;99.90;;;;;;4977281;28;20409;-74
2022/09/28 04:12:17;;;;;;;232.20;23.37;;;6.10;99.90;;;;;;4990274;28;20045;-73
2022/09/28 04:14:43;;;;;;;95.60;14.40;;;6.10;99.90;;;;;;4978287;28;20066;-74
2022/09/28 04:17:09;;;;;;;103.93;17.83;;;6.20;99.90;;;;;;4982392;28;20046;-74
2022/09/28 04:19:34;;;;;;;104.20;18.60;;;6.20;99.90;;;;;;5010985;28;20081;-74
2022/09/28 04:22:00;;;;;;;59.87;15.90;;;6.30;99.90;;;;;;4992939;28;20134;-74
2022/09/28 04:24:26;;;;;;;67.83;17.10;;;6.30;99.90;;;;;;5010124;28;20133;-74
2022/09/28 04:29:14;;;;;;;81.67;15.00;;;6.30;99.90;;;;;;4982386;28;20113;-74
2022/09/28 04:29:40;;;;;;;150.20;16.27;;;6.30;99.90;;;;;;5009960;28;20512;-74
2022/09/28 04:32:06;;;;;;;68.87;12.73;;;6.10;99.90;;;;;;4991888;28;20052;-74
2022/09/28 04:34:32;;;;;;;88.30;14.87;;;6.00;99.90;;;;;;4993336;28;20045;-74
2022/09/28 04:36:57;;;;;;;68.80;14.67;;;6.00;99.90;;;;;;4995038;28;20137;-74
2022/09/28 04:39:23;;;;;;;49.33;13.83;;;6.10;99.90;;;;;;4976660;28;20548;-74
2022/09/28 04:41:49;;;;;;;33.90;13.90;;;6.20;99.90;;;;;;4990561;28;20038;-74
2022/09/28 04:44:14;;;;;;;34.73;14.70;;;6.30;99.90;;;;;;4998242;28;20054;-74
2022/09/28 04:46:40;;;;;;;39.70;15.40;;;6.30;99.90;;;;;;4995615;28;20073;-74
2022/09/28 04:49:08;;;;;;;39.80;15.47;;;6.30;99.90;;;;;;5008160;28;20050;-74
2022/09/28 04:51:34;;;;;;;40.13;16.30;;;6.30;99.90;;;;;;4976569;28;20045;-74
2022/09/28 04:53:59;;;;;;;40.60;16.43;;;6.40;99.90;;;;;;4992295;28;20045;-74
2022/09/28 04:56:25;;;;;;;45.90;17.20;;;6.30;99.90;;;;;;4998386;28;20919;-74
2022/09/28 04:58:51;;;;;;;46.20;16.57;;;6.40;99.90;;;;;;4989088;28;20493;-74
2022/09/28 05:01:18;;;;;;;44.57;16.93;;;6.50;99.90;;;;;;4976669;28;20501;-74
2022/09/28 05:03:45;;;;;;;42.23;16.77;;;6.40;99.90;;;;;;4975870;28;20049;-74
2022/09/28 05:06:14;;;;;;;37.63;16.23;;;6.40;99.90;;;;;;4998014;28;20050;-75
2022/09/28 05:08:40;;;;;;;60.17;14.90;;;6.50;99.90;;;;;;4969498;28;20050;-74
2022/09/28 05:11:09;;;;;;;47.53;12.63;;;6.20;99.90;;;;;;4992925;28;20053;-74
2022/09/28 05:13:41;;;;;;;92.00;13.90;;;6.00;99.90;;;;;;4979181;28;20100;-75
2022/09/28 05:16:07;;;;;;;116.20;14.53;;;5.90;99.90;;;;;;4982696;28;20042;-75
2022/09/28 05:18:33;;;;;;;48.17;11.77;;;5.70;99.90;;;;;;4999676;28;20061;-74
2022/09/28 05:21:00;;;;;;;52.70;12.37;;;5.70;99.90;;;;;;4991940;28;20304;-75
2022/09/28 05:23:25;;;;;;;97.20;13.60;;;5.60;99.90;;;;;;4978517;28;20054;-75
2022/09/28 05:25:51;;;;;;;81.47;11.33;;;5.50;99.90;;;;;;4989974;28;20061;-75
2022/09/28 05:28:26;;;;;;;107.13;12.70;;;5.50;99.90;;;;;;4993280;28;20390;-75
2022/09/28 05:30:52;;;;;;;200.87;16.37;;;5.50;99.90;;;;;;4973148;28;20049;-74
2022/09/28 05:33:18;;;;;;;247.23;23.57;;;5.40;99.90;;;;;;4990791;28;20050;-74
2022/09/28 05:35:43;;;;;;;406.63;82.03;;;5.40;99.90;;;;;;5010255;28;20057;-74
2022/09/28 05:38:09;;;;;;;322.97;45.37;;;5.30;99.90;;;;;;4976775;28;20095;-74
2022/09/28 05:40:35;;;;;;;227.70;38.57;;;5.40;99.90;;;;;;5010735;28;20496;-75
2022/09/28 05:43:01;;;;;;;177.43;27.17;;;5.30;99.90;;;;;;4990981;28;20053;-74
2022/09/28 05:45:28;;;;;;;176.53;23.10;;;5.50;99.90;;;;;;5000919;28;20052;-75
2022/09/28 05:47:53;;;;;;;69.20;13.93;;;5.40;99.90;;;;;;4986354;28;20413;-74
2022/09/28 05:50:19;;;;;;;81.00;14.90;;;5.50;99.90;;;;;;5013738;28;20057;-75
2022/09/28 05:52:45;;;;;;;180.73;60.97;;;5.50;99.90;;;;;;4960109;28;20044;-74
2022/09/28 05:55:11;;;;;;;69.13;18.57;;;5.50;99.90;;;;;;5000565;28;20077;-74
2022/09/28 05:57:37;;;;;;;47.10;13.10;;;5.40;99.90;;;;;;4979484;28;20132;-74
2022/09/28 06:00:07;;;;;;;26.30;11.27;;;5.40;99.90;;;;;;4995827;28;20141;-75
2022/09/28 06:02:34;;;;;;;46.05;12.85;;;5.30;99.90;;;;;;4994710;28;20042;-74
2022/09/28 06:05:00;;;;;;;62.80;13.60;;;5.40;99.90;;;;;;5013447;28;20050;-75
2022/09/28 06:07:25;;;;;;;66.13;13.90;;;5.40;99.90;;;;;;4966246;28;20050;-73
2022/09/28 06:09:52;;;;;;;60.77;12.57;;;5.50;99.90;;;;;;5013394;28;20054;-75
2022/09/28 06:12:18;;;;;;;103.93;15.37;;;5.40;99.90;;;;;;5010689;28;20049;-74
2022/09/28 06:14:44;;;;;;;176.60;18.90;;;5.40;99.90;;;;;;4980462;28;20092;-75
2022/09/28 06:17:10;;;;;;;231.03;28.90;;;5.30;99.90;;;;;;4971506;28;20073;-74
2022/09/28 06:19:35;;;;;;;322.40;28.03;;;5.30;99.90;;;;;;4995719;28;20410;-75
2022/09/28 06:22:01;;;;;;;182.63;19.20;;;5.30;99.90;;;;;;4992371;28;20062;-74
2022/09/28 06:24:27;;;;;;;200.33;17.40;;;5.30;99.90;;;;;;4992441;28;20085;-74
2022/09/28 06:26:52;;;;;;;230.63;18.47;;;5.30;99.90;;;;;;4978048;28;20052;-74
2022/09/28 06:29:18;;;;;;;297.80;22.03;;;5.30;99.90;;;;;;4991413;28;20490;-75
2022/09/28 06:31:44;;;;;;;236.50;18.77;;;5.30;99.90;;;;;;4993388;28;20257;-75
2022/09/28 06:34:11;;;;;;;192.47;17.43;;;5.30;99.90;;;;;;4991154;28;20049;-74
2022/09/28 06:36:38;;;;;;;184.87;17.70;;;5.50;99.90;;;;;;4978329;28;20206;-74
2022/09/28 06:39:04;;;;;;;127.03;15.30;;;5.50;99.90;;;;;;4974448;28;20150;-75
2022/09/28 06:41:30;;;;;;;152.83;19.47;;;5.50;99.90;;;;;;4989543;28;20533;-75
2022/09/28 06:43:55;;;;;;;110.67;21.47;;;5.50;99.90;;;;;;4981490;28;20086;-74
2022/09/28 06:46:21;;;;;;;119.33;40.03;;;5.60;99.90;;;;;;4975844;28;20060;-74
2022/09/28 06:48:48;;;;;;;66.87;29.67;;;5.60;99.90;;;;;;4987942;28;20046;-75
2022/09/28 06:51:14;;;;;;;38.23;17.43;;;5.80;99.90;;;;;;4991691;28;20050;-75
2022/09/28 06:53:40;;;;;;;45.73;22.70;;;5.90;99.90;;;;;;4991442;28;20046;-75
2022/09/28 06:56:09;;;;;;;38.97;18.83;;;6.00;99.90;;;;;;4988419;28;20046;-75
2022/09/28 06:58:34;;;;;;;32.43;17.10;;;6.20;99.90;;;;;;4984418;28;20046;-74
2022/09/28 07:01:00;;;;;;;42.27;16.53;;;6.40;99.90;;;;;;4978482;28;20047;-74
2022/09/28 07:03:26;;;;;;;48.50;15.97;;;6.40;99.90;;;;;;4992021;28;20077;-74
2022/09/28 07:05:53;;;;;;;47.23;16.20;;;6.20;99.90;;;;;;4978854;28;20499;-74
2022/09/28 07:08:23;;;;;;;31.60;14.70;;;6.20;99.90;;;;;;4955813;28;20051;-74
2022/09/28 07:10:55;;;;;;;44.77;24.33;;;6.30;99.90;;;;;;4988821;28;20513;-75
2022/09/28 07:13:24;;;;;;;;;;;6.40;99.90;;;;;;4981234;28;20078;-74
2022/09/28 07:15:58;;;;;;;33.90;16.43;;;6.40;99.90;;;;;;4990287;28;20395;-75
2022/09/28 07:18:26;;;;;;;30.27;16.40;;;6.60;99.90;;;;;;4976451;28;20050;-74
2022/09/28 07:20:55;;;;;;;31.97;16.00;;;6.60;99.90;;;;;;5001609;28;20505;-74
2022/09/28 07:23:21;;;;;;;30.07;16.10;;;6.80;99.90;;;;;;4993522;28;20188;-75
2022/09/28 07:25:48;;;;;;;29.53;16.50;;;7.00;99.90;;;;;;4978083;28;20061;-74
2022/09/28 07:28:16;;;;;;;31.80;16.80;;;7.10;99.90;;;;;;4995846;28;20046;-75
2022/09/28 07:30:45;;;;;;;35.77;17.63;;;7.20;99.90;;;;;;4994371;28;20050;-74
2022/09/28 07:33:13;;;;;;;31.00;17.10;;;7.30;99.90;;;;;;4993683;28;20535;-74
2022/09/28 07:35:40;;;;;;;32.13;17.30;;;7.30;99.90;;;;;;4994386;28;20053;-75
2022/09/28 07:38:09;;;;;;;29.00;15.60;;;7.40;99.90;;;;;;4972647;28;20046;-74
2022/09/28 07:43:20;;;;;;;32.10;17.37;;;7.70;99.90;;;;;;5003296;28;20054;-75
2022/09/28 07:45:47;;;;;;;26.80;14.53;;;7.70;99.90;;;;;;5000052;28;20129;-75
2022/09/28 07:48:17;;;;;;;25.30;14.93;;;7.80;99.90;;;;;;4970937;28;20046;-75
2022/09/28 07:50:51;;;;;;;27.43;14.83;;;8.00;99.90;;;;;;5006532;28;20286;-75
2022/09/28 07:53:22;;;;;;;27.40;13.97;;;8.20;99.90;;;;;;4982054;28;20045;-74
2022/09/28 07:55:55;;;;;;;23.17;13.90;;;8.40;99.90;;;;;;4983007;28;20046;-75
2022/09/28 07:58:21;;;;;;;23.63;13.20;;;8.50;99.90;;;;;;4965872;28;20049;-75
2022/09/28 08:00:48;;;;;;;22.07;13.23;;;8.60;99.90;;;;;;4984066;28;20098;-75
2022/09/28 08:03:21;;;;;;;20.17;12.50;;;8.90;99.90;;;;;;4981736;28;20038;-75
2022/09/28 08:05:46;;;;;;;22.87;12.73;;;8.90;99.90;;;;;;4985645;28;20132;-75
2022/09/28 08:08:13;;;;;;;16.87;12.20;;;9.10;99.90;;;;;;4955468;28;20166;-75
2022/09/28 08:10:42;;;;;;;16.13;9.93;;;9.20;99.90;;;;;;4985733;28;20061;-75
2022/09/28 08:13:08;;;;;;;14.77;8.83;;;9.40;99.90;;;;;;5000126;28;20046;-75
2022/09/28 08:15:35;;;;;;;9.90;7.67;;;9.30;99.90;;;;;;4969946;28;20505;-75
2022/09/28 08:18:02;;;;;;;11.70;7.10;;;9.30;99.90;;;;;;4965782;28;20069;-75
2022/09/28 08:23:14;;;;;;;10.83;6.50;;;9.40;99.90;;;;;;4981771;28;20505;-75
2022/09/28 08:25:45;;;;;;;10.63;7.10;;;9.40;99.90;;;;;;5001386;28;20556;-75
2022/09/28 08:28:11;;;;;;;10.33;6.43;;;9.50;99.90;;;;;;4984263;28;20050;-75
2022/09/28 08:30:40;;;;;;;8.90;6.47;;;9.50;99.90;;;;;;4982354;28;20123;-75
2022/09/28 08:33:06;;;;;;;9.70;6.27;;;9.50;99.90;;;;;;4983401;28;20042;-75
2022/09/28 08:35:32;;;;;;;6.27;5.40;;;9.60;99.90;;;;;;5003885;28;20062;-75
2022/09/28 08:37:58;;;;;;;15.57;8.37;;;9.70;99.90;;;;;;4976295;28;20037;-75
2022/09/28 08:40:24;;;;;;;10.57;6.17;;;9.80;99.90;;;;;;4986818;28;20042;-75
2022/09/28 08:43:05;;;;;;;8.13;5.43;;;9.80;99.90;;;;;;4982373;28;20046;-75
2022/09/28 08:45:34;;;;;;;7.67;5.40;;;9.90;99.90;;;;;;4985156;28;20046;-75
2022/09/28 08:51:06;;;;;;;6.00;4.13;;;10.00;99.90;;;;;;4983199;28;20390;-75
2022/09/28 08:53:31;;;;;;;;;;;9.90;99.90;;;;;;5001232;28;20041;-75
2022/09/28 08:56:01;;;;;;;6.40;3.50;;;10.10;99.90;;;;;;4982158;28;19949;-75
2022/09/28 08:58:32;;;;;;;4.37;3.23;;;10.10;99.90;;;;;;4984441;28;20568;-75
2022/09/28 09:00:59;;;;;;;4.70;3.90;;;10.10;99.90;;;;;;4999808;28;20046;-75
2022/09/28 09:03:38;;;;;;;5.20;3.80;;;10.20;99.90;;;;;;4999372;28;20097;-75
2022/09/28 09:06:16;;;;;;;6.77;3.63;;;10.20;99.90;;;;;;4986290;28;20073;-75
2022/09/28 09:08:51;;;;;;;4.70;3.20;;;10.40;99.90;;;;;;4985238;28;20049;-74
2022/09/28 09:11:19;;;;;;;5.82;2.30;;;10.40;99.90;;;;;;4988400;28;20084;-74
2022/09/28 09:14:00;;;;;;;4.28;1.90;;;10.60;99.90;;;;;;4975307;28;20085;-74
2022/09/28 09:16:31;;;;;;;2.73;1.47;;;10.60;99.90;;;;;;4984252;28;20513;-75
2022/09/28 09:19:05;;;;;;;5.70;1.30;;;10.60;99.90;;;;;;5007719;28;20372;-75
2022/09/28 09:21:47;;;;;;;3.28;0.75;;;10.70;99.90;;;;;;4992716;28;20091;-75
2022/09/28 09:24:32;;;;;;;5.05;1.63;;;10.80;99.90;;;;;;4991583;28;20045;-74
2022/09/28 09:27:22;;;;;;;3.25;1.13;;;10.80;99.90;;;;;;4977267;28;20366;-75
2022/09/28 09:30:10;;;;;;;5.07;1.42;;;11.00;99.90;;;;;;4991748;28;20120;-74
2022/09/28 09:32:35;;;;;;;6.68;1.15;;;11.10;99.90;;;;;;4991282;28;20069;-74
2022/09/28 09:35:19;;;;;;;4.40;1.20;;;11.20;99.90;;;;;;4992707;28;20074;-74
2022/09/28 09:38:05;;;;;;;5.82;0.90;;;11.20;99.90;;;;;;4982352;28;20540;-74
2022/09/28 09:40:43;;;;;;;1.73;0.52;;;11.20;99.90;;;;;;4995612;28;20046;-74
2022/09/28 09:43:37;;;;;;;4.25;1.00;;;11.20;99.90;;;;;;4982738;28;20624;-74
2022/09/28 09:46:02;;;;;;;2.38;0.73;;;11.30;99.90;;;;;;4967934;28;20049;-74
2022/09/28 09:49:03;;;;;;;4.63;0.90;;;11.20;99.90;;;;;;4953435;28;20052;-74
2022/09/28 09:52:02;;;;;;;2.60;0.77;;;11.20;99.90;;;;;;4991233;28;20058;-74
2022/09/28 09:54:38;;;;;;;2.63;0.60;;;11.20;99.90;;;;;;4999096;28;20417;-74
2022/09/28 09:57:21;;;;;;;1.27;0.65;;;11.30;99.90;;;;;;4970285;28;20052;-74
2022/09/28 09:59:48;;;;;;;3.30;0.82;;;11.20;99.90;;;;;;4985217;28;20049;-74
2022/09/28 10:02:24;;;;;;;2.90;0.60;;;11.20;99.90;;;;;;4982288;28;20065;-74
2022/09/28 10:04:54;;;;;;;5.28;0.85;;;11.30;99.90;;;;;;5009527;28;20041;-74
2022/09/28 10:07:42;;;;;;;2.90;0.80;;;11.40;99.90;;;;;;4991927;28;20057;-74
2022/09/28 10:10:24;;;;;;;2.80;0.90;;;11.40;99.90;;;;;;4989784;28;20404;-74
2022/09/28 10:12:51;;;;;;;1.95;0.70;;;11.40;99.90;;;;;;4988583;28;20041;-74
2022/09/28 10:15:28;;;;;;;3.35;0.50;;;11.40;99.90;;;;;;4998418;28;20174;-74
2022/09/28 10:18:05;;;;;;;1.08;0.35;;;11.40;99.90;;;;;;4956287;28;20051;-73
2022/09/28 10:20:35;;;;;;;1.13;0.40;;;11.40;99.90;;;;;;4987845;28;20073;-74
2022/09/28 10:23:04;;;;;;;2.05;0.30;;;11.50;99.90;;;;;;4991544;28;20066;-74
2022/09/28 10:25:35;;;;;;;3.15;0.60;;;12.00;99.90;;;;;;5008906;28;20077;-74
2022/09/28 10:28:05;;;;;;;1.80;0.28;;;12.60;99.90;;;;;;4978098;28;20083;-73
2022/09/28 10:30:40;;;;;;;0.70;0.30;;;13.00;99.90;;;;;;4995500;28;20044;-74
2022/09/28 10:33:33;;;;;;;0.70;0.20;;;13.30;99.90;;;;;;5012578;28;20050;-74
2022/09/28 10:36:00;;;;;;;0.60;0.13;;;13.30;99.90;;;;;;4994596;28;20050;-74
2022/09/28 10:38:28;;;;;;;0.47;0.20;;;13.30;99.90;;;;;;4979583;28;20629;-73
2022/09/28 10:40:58;;;;;;;2.35;0.32;;;13.30;99.90;;;;;;5012333;28;20133;-74
2022/09/28 10:43:28;;;;;;;1.85;0.30;;;13.30;99.90;;;;;;5009569;28;20042;-74
2022/09/28 10:46:10;;;;;;;1.33;0.10;;;13.10;99.90;;;;;;5012966;28;20517;-74
2022/09/28 10:48:52;;;;;;;5.60;0.30;;;12.90;99.90;;;;;;4987328;28;20077;-74
2022/09/28 10:51:19;;;;;;;3.95;0.17;;;12.70;99.90;;;;;;4998674;28;20046;-73
2022/09/28 10:54:01;;;;;;;3.08;0.10;;;12.60;99.90;;;;;;4974981;28;20241;-73
2022/09/28 10:56:34;;;;;;;4.43;0.20;;;12.60;99.90;;;;;;4963397;28;20520;-74
2022/09/28 10:59:00;;;;;;;1.13;0.20;;;12.50;99.90;;;;;;4957046;28;20481;-73
2022/09/28 11:01:31;;;;;;;4.35;0.30;;;12.40;99.90;;;;;;4993630;28;20048;-74
2022/09/28 11:04:06;;;;;;;1.30;0.30;;;12.40;99.90;;;;;;5011803;28;20064;-74
2022/09/28 11:06:38;;;;;;;2.28;0.50;;;12.10;99.90;;;;;;4998689;28;20323;-74
2022/09/28 11:09:30;;;;;;;0.77;0.25;;;12.10;99.90;;;;;;5009702;28;20057;-74
2022/09/28 11:11:58;;;;;;;1.83;0.20;;;12.00;99.90;;;;;;5012461;28;20046;-73
2022/09/28 11:14:34;;;;;;;2.38;0.32;;;12.00;99.90;;;;;;4980762;28;20917;-73
2022/09/28 11:17:24;;;;;;;1.75;0.40;;;11.90;99.90;;;;;;4978163;28;20385;-74
2022/09/28 11:19:51;;;;;;;3.05;0.45;;;11.90;99.90;;;;;;5011244;28;20053;-73
2022/09/28 11:22:26;;;;;;;1.58;0.20;;;11.90;99.90;;;;;;5011572;28;20577;-73
2022/09/28 11:25:10;;;;;;;2.40;0.40;;;11.90;99.90;;;;;;4995338;28;20049;-73
2022/09/28 11:27:36;;;;;;;1.42;0.30;;;12.20;99.90;;;;;;4961795;28;20050;-73
2022/09/28 11:30:02;;;;;;;1.45;0.35;;;12.10;99.90;;;;;;4994440;28;20046;-73
2022/09/28 11:32:38;;;;;;;1.98;0.40;;;12.10;99.90;;;;;;4993670;28;20053;-73
2022/09/28 11:35:04;;;;;;;1.98;0.35;;;12.10;99.90;;;;;;5012245;28;20085;-73
2022/09/28 11:37:52;;;;;;;1.05;0.30;;;12.10;99.90;;;;;;4978121;28;20401;-73
2022/09/28 11:40:36;;;;;;;3.65;0.77;;;12.10;99.90;;;;;;4993991;28;20048;-74
2022/09/28 11:43:39;;;;;;;1.70;0.25;;;12.20;99.90;;;;;;4988213;28;20050;-73
2022/09/28 11:46:18;;;;;;;2.15;0.30;;;12.10;99.90;;;;;;4980396;28;20124;-73
2022/09/28 11:48:51;;;;;;;0.57;0.15;;;12.00;99.90;;;;;;4981726;28;20057;-73
2022/09/28 11:51:23;;;;;;;2.63;0.38;;;12.00;99.90;;;;;;4974829;28;20042;-74
2022/09/28 11:54:13;;;;;;;2.58;0.52;;;11.80;99.90;;;;;;5000088;28;20046;-74
2022/09/28 11:56:42;;;;;;;3.65;0.40;;;11.80;99.90;;;;;;4980156;28;20100;-74
2022/09/28 11:59:20;;;;;;;1.88;0.47;;;11.70;99.90;;;;;;5009223;28;20401;-74
2022/09/28 12:01:59;;;;;;;1.83;0.45;;;11.60;99.90;;;;;;4994138;28;20068;-74
2022/09/28 12:04:40;;;;;;;1.85;0.47;;;11.50;99.90;;;;;;4993107;28;20034;-74
2022/09/28 12:07:15;;;;;;;1.45;0.50;;;11.40;99.90;;;;;;4995500;28;20379;-73
2022/09/28 12:10:09;;;;;;;1.80;1.00;;;11.40;99.90;;;;;;4993701;28;20543;-74
2022/09/28 12:12:56;;;;;;;7.63;1.95;;;11.30;99.90;;;;;;5006291;28;20054;-73
2022/09/28 12:15:27;;;;;;;3.92;2.20;;;11.30;99.90;;;;;;4988071;28;20057;-73
2022/09/28 12:18:13;;;;;;;2.97;2.08;;;11.30;99.90;;;;;;4977281;28;20045;-74
2022/09/28 12:20:43;;;;;;;2.33;1.20;;;11.30;99.90;;;;;;5010923;28;20509;-73
2022/09/28 12:23:29;;;;;;;1.88;0.98;;;11.30;99.90;;;;;;5010430;28;20045;-73
2022/09/28 12:26:01;;;;;;;3.35;0.70;;;11.40;99.90;;;;;;5011261;28;20045;-73
2022/09/28 12:28:40;;;;;;;2.45;0.60;;;11.40;99.90;;;;;;4994564;28;20044;-73
2022/09/28 12:31:16;;;;;;;2.90;0.60;;;11.40;99.90;;;;;;5009493;28;20489;-73
2022/09/28 12:33:48;;;;;;;3.30;0.40;;;11.30;99.90;;;;;;4992598;28;20488;-74
2022/09/28 12:36:41;;;;;;;2.53;0.28;;;11.30;99.90;;;;;;4983830;28;20061;-74
2022/09/28 12:39:36;;;;;;;1.10;0.10;;;11.30;99.90;;;;;;4991379;28;20484;-73
2022/09/28 12:42:39;;;;;;;1.17;0.15;;;11.20;99.90;;;;;;4989618;28;20472;-74
2022/09/28 12:45:29;;;;;;;4.18;0.20;;;11.40;99.90;;;;;;4976428;28;20049;-74
2022/09/28 12:48:35;;;;;;;1.02;0.10;;;11.60;99.90;;;;;;4994045;28;20046;-74
2022/09/28 12:51:03;;;;;;;1.13;0.05;;;11.90;99.90;;;;;;4992181;28;20058;-74
2022/09/28 12:53:53;;;;;;;0.60;0.10;;;12.30;99.90;;;;;;4991907;28;20069;-74
2022/09/28 12:56:37;;;;;;;1.50;0.00;;;12.30;99.90;;;;;;4982245;28;20104;-74
2022/09/28 12:59:21;;;;;;;4.57;0.08;;;12.50;99.90;;;;;;4990023;28;20056;-74
2022/09/28 13:01:46;;;;;;;1.08;0.00;;;12.60;99.90;;;;;;4992912;28;20539;-73
2022/09/28 13:05:03;;;;;;;0.57;0.08;;;12.60;99.90;;;;;;4991644;28;20042;-74
2022/09/28 13:07:37;;;;;;;0.28;0.03;;;12.70;99.90;;;;;;4917124;29;20054;-74
2022/09/28 13:10:24;;;;;;;0.73;0.20;;;12.80;99.90;;;;;;4949831;29;20057;-74
2022/09/28 13:13:31;;;;;;;0.68;0.10;;;12.70;99.90;;;;;;4966323;28;20186;-73
2022/09/28 13:16:21;;;;;;;1.42;0.10;;;12.80;99.90;;;;;;5009341;28;20080;-73